الصفحة الرئيسية
METAR-TAF:

METAR-TAF

مطار :

Cerklje ob Krki, سلوفينيا

دائرة عرض: 45-53-59N, خط طول: 15-30-55E, ارتفاع: 157 متر

مراقبة الطقس الحالي

تاريخ ووقت الإصدار 43 دقيقة قبل الساعة 19:30UTC
رياح هادئة
درجة الحرارة 13°درجة مئوية
الرطوبة 100%
ضغط 1008 hPa
الرؤية 10 كم أو أكثر

METAR: LJCE 151930Z AUTO 00000KT 9999 NSC 13/13 Q1008

زمن: 22:13 (20:13 UTC)

توقعات

تاريخ ووقت الإصدار 3ساعات و 13 دقيقة قبل الساعة 17:00UTC
التوقعات صالحة من15 الساعة 18 UTC إلى 16 الساعة 03 UTC
ريح 2 عقدةمن اتجاهات متغيرة
الرؤية 10 كم أو أكثر
غيوم متفرقة على ارتفاع 5000 قدم
نظرية الاحتمالات 30% :
مؤقت
من 16 الساعة 00 UTC إلى 16 الساعة 03 UTC
الرؤية: 0500 متر
على ارتفاع 100 قدم
ضباب

TAF: LJCE 151700Z 1518/1603 VRB02KT 9999 SCT050 PROB30 TEMPO 1600/1603 0500 FG VV001

أرصاد الطقس والتوقعات من أكثر من 4000 مطار (تقارير الطقس للمطار METAR والتنبؤ بالطقس بالمطارTAF).

المحطات المتاحة هي النقط الصفراء والحمراء على الخريطة.

حرك المؤشر فوق النقطة لمعرفة اسم المحطة.

ثم انقر لمعرفة أرصاد وتوقعات الطقس.

لتغيير الخارطة: اضغط على الأزرار الخضراء مع رمز الصليب الأسود للتكبير. على الزر الأخضر مع شرطة للتصغير، أو على الأسهم الخضراء للخرائط المجاورة.


METAR-TAF: